createdAt,value
2018-11-04T00:01:00.210Z,74.45
2018-11-04T00:04:24.939Z,75.03
2018-11-04T00:07:50.882Z,74.66
2018-11-04T00:11:15.543Z,74.46
2018-11-04T00:14:40.351Z,74.69
2018-11-04T00:18:05.061Z,74.40
2018-11-04T00:21:29.758Z,74.91
2018-11-04T00:24:54.461Z,75.54
2018-11-04T00:28:19.278Z,75.41
2018-11-04T00:31:43.996Z,75.37
2018-11-04T00:35:09.110Z,75.06
2018-11-04T00:38:33.826Z,74.91
2018-11-04T00:41:58.603Z,75.15
2018-11-04T00:45:23.452Z,75.10
2018-11-04T00:48:48.151Z,74.81
2018-11-04T00:52:12.928Z,74.93
2018-11-04T00:55:37.764Z,75.37
2018-11-04T00:59:02.524Z,75.36
2018-11-04T01:02:27.312Z,75.59
2018-11-04T01:05:52.130Z,75.44
2018-11-04T01:09:17.109Z,75.09
2018-11-04T01:12:42.434Z,75.13
2018-11-04T01:16:07.797Z,75.60
2018-11-04T01:19:32.486Z,75.13
2018-11-04T01:22:57.219Z,75.45
2018-11-04T01:26:21.949Z,75.79
2018-11-04T01:29:46.722Z,75.13
2018-11-04T01:33:11.474Z,75.76
2018-11-04T01:36:36.202Z,76.11
2018-11-04T01:40:00.911Z,75.69
2018-11-04T01:43:25.658Z,75.70
2018-11-04T01:46:50.411Z,75.79
2018-11-04T01:50:15.515Z,76.36
2018-11-04T01:53:40.291Z,76.33
2018-11-04T01:57:05.079Z,76.03
2018-11-04T02:00:29.954Z,75.88
2018-11-04T02:03:54.646Z,75.50
2018-11-04T02:07:19.387Z,76.34
2018-11-04T02:10:44.108Z,75.20
2018-11-04T02:14:08.867Z,75.40
2018-11-04T02:17:33.673Z,75.89
2018-11-04T02:20:58.419Z,75.56
2018-11-04T02:24:23.138Z,75.56
2018-11-04T02:27:47.854Z,76.34
2018-11-04T02:31:12.669Z,75.43
2018-11-04T02:34:37.493Z,75.44
2018-11-04T02:38:02.320Z,76.14
2018-11-04T02:41:27.254Z,75.89
2018-11-04T02:44:52.019Z,76.49
2018-11-04T02:48:16.749Z,75.78
2018-11-04T02:51:41.496Z,76.34
2018-11-04T02:55:06.797Z,76.15
2018-11-04T02:58:31.532Z,76.21
2018-11-04T03:01:56.340Z,76.07
2018-11-04T03:05:21.101Z,75.46
2018-11-04T03:08:45.913Z,75.74
2018-11-04T03:12:10.673Z,76.46
2018-11-04T03:15:35.528Z,75.80
2018-11-04T03:19:00.321Z,76.32
2018-11-04T03:22:25.083Z,76.88
2018-11-04T03:25:49.838Z,77.05
2018-11-04T03:29:14.560Z,76.48
2018-11-04T03:32:39.335Z,76.28
2018-11-04T03:36:04.075Z,76.25
2018-11-04T03:39:28.776Z,77.02
2018-11-04T03:42:53.462Z,76.65
2018-11-04T03:46:18.190Z,76.72
2018-11-04T03:49:42.949Z,76.79
2018-11-04T03:53:08.571Z,76.66
2018-11-04T03:56:33.325Z,76.05
2018-11-04T03:59:58.064Z,76.81
2018-11-04T04:03:22.825Z,76.79
2018-11-04T04:06:47.581Z,76.47
2018-11-04T04:10:12.276Z,76.85
2018-11-04T04:13:36.953Z,77.18
2018-11-04T04:17:01.725Z,77.36
2018-11-04T04:20:26.393Z,76.74
2018-11-04T04:23:51.130Z,76.81
2018-11-04T04:27:15.859Z,76.71
2018-11-04T04:30:40.577Z,77.22
2018-11-04T04:34:05.359Z,76.79
2018-11-04T04:37:30.086Z,76.41
2018-11-04T04:40:54.829Z,76.76
2018-11-04T04:44:19.561Z,77.38
2018-11-04T04:47:44.293Z,77.52
2018-11-04T04:51:09.176Z,76.20
2018-11-04T04:54:33.886Z,76.73
2018-11-04T04:57:58.666Z,76.72
2018-11-04T05:01:23.575Z,76.70
2018-11-04T05:04:48.275Z,77.23
2018-11-04T05:08:13.310Z,77.37
2018-11-04T05:11:38.025Z,77.54
2018-11-04T05:15:02.731Z,77.49
2018-11-04T05:18:27.429Z,77.20
2018-11-04T05:21:52.228Z,77.28
2018-11-04T05:25:16.987Z,76.90
2018-11-04T05:28:41.691Z,76.96
2018-11-04T05:32:08.639Z,76.98
2018-11-04T05:35:33.551Z,77.46
2018-11-04T05:38:58.388Z,77.43
2018-11-04T05:42:23.116Z,77.24
2018-11-04T05:45:47.849Z,77.45
2018-11-04T05:49:14.361Z,77.79
2018-11-04T05:52:39.088Z,77.96
2018-11-04T05:56:06.644Z,77.88
2018-11-04T05:59:31.543Z,77.64
2018-11-04T06:02:56.260Z,78.42
2018-11-04T06:06:21.014Z,78.06
2018-11-04T06:09:45.746Z,78.50
2018-11-04T06:16:44.948Z,78.06
2018-11-04T06:20:11.365Z,77.91
2018-11-04T06:23:39.939Z,77.82
2018-11-04T06:27:04.654Z,78.32
2018-11-04T06:30:29.335Z,78.32
2018-11-04T06:33:54.077Z,78.18
2018-11-04T06:37:18.884Z,78.26
2018-11-04T06:40:43.737Z,78.16
2018-11-04T06:44:09.383Z,77.63
2018-11-04T06:47:34.204Z,78.39
2018-11-04T06:50:59.009Z,78.32
2018-11-04T06:54:23.730Z,78.54
2018-11-04T06:57:48.581Z,77.76
2018-11-04T07:01:13.388Z,78.35
2018-11-04T07:04:38.629Z,78.10
2018-11-04T07:08:04.411Z,78.16
2018-11-04T07:11:29.267Z,78.41
2018-11-04T07:14:54.639Z,78.86
2018-11-04T07:18:20.158Z,77.87
2018-11-04T07:21:45.131Z,78.19
2018-11-04T07:25:10.098Z,78.22
2018-11-04T07:28:34.973Z,77.77
2018-11-04T07:31:59.884Z,77.66
2018-11-04T07:35:24.790Z,78.13
2018-11-04T07:38:49.619Z,77.14
2018-11-04T07:42:14.488Z,77.45
2018-11-04T07:45:39.434Z,77.24
2018-11-04T07:49:05.409Z,77.03
2018-11-04T07:52:30.977Z,77.34
2018-11-04T07:55:55.825Z,77.39
2018-11-04T07:59:21.327Z,77.38
2018-11-04T08:02:46.242Z,76.53
2018-11-04T08:06:11.441Z,76.30
2018-11-04T08:09:36.242Z,75.77
2018-11-04T08:13:01.441Z,75.32
2018-11-04T08:16:26.142Z,74.74
2018-11-04T08:19:50.893Z,74.38
2018-11-04T08:23:15.749Z,72.93
2018-11-04T08:26:40.604Z,72.38
2018-11-04T08:30:06.908Z,71.99
2018-11-04T08:33:31.723Z,72.43
2018-11-04T08:36:56.479Z,72.29
2018-11-04T08:40:21.354Z,71.85
2018-11-04T08:43:46.327Z,72.26
2018-11-04T08:47:11.100Z,72.37
2018-11-04T08:50:35.822Z,72.21
2018-11-04T08:54:00.610Z,72.54
2018-11-04T08:57:25.407Z,72.60
2018-11-04T09:00:50.166Z,72.47
2018-11-04T09:04:15.151Z,72.47
2018-11-04T09:07:40.220Z,71.73
2018-11-04T09:11:06.339Z,71.24
2018-11-04T09:14:31.236Z,71.08
2018-11-04T09:17:56.107Z,70.84
2018-11-04T09:21:20.918Z,70.36
2018-11-04T09:24:45.773Z,70.48
2018-11-04T09:28:10.563Z,70.37
2018-11-04T09:31:35.416Z,70.77
2018-11-04T09:35:00.234Z,70.32
2018-11-04T09:38:24.999Z,70.51
2018-11-04T09:41:49.699Z,70.02
2018-11-04T09:45:14.472Z,68.50
2018-11-04T09:48:39.264Z,67.95
2018-11-04T09:52:04.044Z,67.55
2018-11-04T09:55:28.881Z,67.41
2018-11-04T09:58:53.631Z,67.65
2018-11-04T10:02:18.534Z,66.40
2018-11-04T10:05:43.458Z,66.01
2018-11-04T10:09:10.308Z,65.57
2018-11-04T10:12:35.091Z,66.10
2018-11-04T10:15:59.815Z,66.30
2018-11-04T10:19:24.783Z,66.38
2018-11-04T10:22:49.361Z,65.82
2018-11-04T10:26:14.131Z,64.31
2018-11-04T10:29:38.876Z,63.17
2018-11-04T10:33:03.676Z,63.25
2018-11-04T10:36:28.420Z,62.72
2018-11-04T10:39:53.245Z,62.76
2018-11-04T10:43:18.022Z,61.67
2018-11-04T10:46:42.832Z,61.64
2018-11-04T10:50:11.401Z,62.40
2018-11-04T10:53:36.265Z,61.03
2018-11-04T10:57:01.169Z,61.07
2018-11-04T11:00:31.198Z,61.44
2018-11-04T11:03:56.192Z,61.76
2018-11-04T11:07:21.378Z,62.58
2018-11-04T11:10:52.525Z,61.32
2018-11-04T11:14:17.681Z,62.33
2018-11-04T11:17:42.466Z,62.80
2018-11-04T11:21:07.724Z,60.04
2018-11-04T11:24:33.215Z,60.09
2018-11-04T11:27:57.912Z,58.83
2018-11-04T11:31:22.803Z,57.24
2018-11-04T11:34:47.702Z,57.19
2018-11-04T11:38:12.756Z,57.24
2018-11-04T11:41:37.588Z,57.24
2018-11-04T11:45:02.483Z,57.33
2018-11-04T11:48:27.200Z,57.63
2018-11-04T11:51:51.967Z,57.50
2018-11-04T11:55:16.706Z,57.78
2018-11-04T11:58:41.694Z,57.46
2018-11-04T12:02:06.659Z,57.08
2018-11-04T12:05:31.375Z,55.86
2018-11-04T12:08:56.254Z,55.82
2018-11-04T12:12:22.872Z,56.41
2018-11-04T12:15:48.888Z,55.67
2018-11-04T12:19:14.612Z,55.41
2018-11-04T12:22:39.545Z,56.25
2018-11-04T12:26:04.620Z,55.64
2018-11-04T12:29:29.517Z,56.64
2018-11-04T12:32:54.411Z,56.39
2018-11-04T12:36:19.247Z,56.08
2018-11-04T12:39:44.240Z,55.08
2018-11-04T12:43:09.035Z,56.00
2018-11-04T12:46:33.804Z,54.78
2018-11-04T12:49:59.161Z,54.01
2018-11-04T12:53:24.256Z,53.49
2018-11-04T12:56:49.062Z,53.17
2018-11-04T13:00:15.037Z,53.73
2018-11-04T13:03:39.793Z,53.85
2018-11-04T13:07:04.589Z,53.99
2018-11-04T13:10:29.367Z,53.69
2018-11-04T13:13:54.389Z,54.69
2018-11-04T13:17:19.305Z,54.72
2018-11-04T13:20:44.187Z,54.53
2018-11-04T13:24:09.036Z,55.16
2018-11-04T13:27:33.891Z,54.67
2018-11-04T13:30:58.865Z,53.18
2018-11-04T13:34:23.699Z,52.68
2018-11-04T13:37:48.572Z,50.91
2018-11-04T13:41:13.312Z,49.90
2018-11-04T13:44:38.149Z,48.65
2018-11-04T13:48:02.893Z,48.00
2018-11-04T13:51:27.614Z,49.73
2018-11-04T13:54:52.378Z,48.73
2018-11-04T13:58:17.138Z,47.56
2018-11-04T14:01:41.995Z,44.12
2018-11-04T14:05:08.237Z,41.47
2018-11-04T14:08:33.803Z,40.93
2018-11-04T14:11:59.531Z,41.91
2018-11-04T14:15:24.341Z,44.08
2018-11-04T14:18:49.092Z,42.55
2018-11-04T14:22:13.980Z,44.17
2018-11-04T14:25:38.840Z,45.62
2018-11-04T14:29:03.623Z,45.98
2018-11-04T14:32:28.850Z,45.25
2018-11-04T14:35:53.595Z,44.51
2018-11-04T14:39:20.272Z,43.54
2018-11-04T14:42:46.184Z,43.48
2018-11-04T14:46:15.223Z,43.70
2018-11-04T14:49:40.063Z,43.64
2018-11-04T14:53:05.140Z,41.74
2018-11-04T14:56:30.521Z,44.69
2018-11-04T14:59:55.403Z,48.63
2018-11-04T15:03:20.210Z,50.75
2018-11-04T15:06:45.229Z,52.39
2018-11-04T15:10:12.813Z,55.47
2018-11-04T15:13:37.624Z,56.58
2018-11-04T15:17:02.363Z,56.99
2018-11-04T15:20:27.245Z,57.64
2018-11-04T15:23:52.045Z,56.83
2018-11-04T15:27:16.876Z,57.30
2018-11-04T15:30:41.637Z,58.30
2018-11-04T15:34:06.767Z,59.00
2018-11-04T15:37:31.482Z,59.13
2018-11-04T15:40:56.265Z,58.63
2018-11-04T15:44:21.549Z,59.98
2018-11-04T15:47:46.318Z,59.45
2018-11-04T15:51:11.101Z,60.65
2018-11-04T15:54:36.010Z,60.44
2018-11-04T15:58:00.891Z,59.89
2018-11-04T16:01:25.826Z,60.04
2018-11-04T16:04:50.540Z,60.63
2018-11-04T16:08:18.353Z,60.60
2018-11-04T16:11:43.256Z,61.18
2018-11-04T16:15:11.062Z,61.46
2018-11-04T16:18:35.864Z,61.59
2018-11-04T16:22:01.047Z,61.40
2018-11-04T16:25:25.904Z,61.47
2018-11-04T16:28:50.604Z,62.06
2018-11-04T16:32:15.585Z,61.38
2018-11-04T16:35:40.326Z,61.93
2018-11-04T16:39:06.414Z,61.94
2018-11-04T16:42:31.173Z,62.09
2018-11-04T16:45:55.921Z,62.67
2018-11-04T16:49:20.645Z,62.11
2018-11-04T16:52:45.918Z,62.69
2018-11-04T16:56:10.855Z,62.67
2018-11-04T16:59:35.471Z,62.80
2018-11-04T17:03:00.400Z,62.48
2018-11-04T17:06:25.229Z,62.47
2018-11-04T17:09:50.080Z,62.38
2018-11-04T17:13:14.795Z,63.66
2018-11-04T17:16:39.573Z,64.00
2018-11-04T17:20:04.881Z,63.97
2018-11-04T17:23:29.744Z,62.68
2018-11-04T17:26:54.518Z,63.54
2018-11-04T17:30:19.790Z,63.70
2018-11-04T17:33:44.564Z,63.55
2018-11-04T17:37:10.445Z,64.55
2018-11-04T17:40:35.133Z,64.00
2018-11-04T17:43:59.888Z,65.12
2018-11-04T17:47:24.594Z,66.15
2018-11-04T17:50:51.225Z,65.68
2018-11-04T17:54:16.673Z,66.84
2018-11-04T17:57:41.671Z,67.17
2018-11-04T18:01:06.466Z,67.15
2018-11-04T18:04:31.164Z,67.66
2018-11-04T18:07:56.024Z,67.15
2018-11-04T18:11:20.802Z,67.45
2018-11-04T18:14:45.582Z,67.90
2018-11-04T18:18:10.314Z,68.01
2018-11-04T18:21:35.371Z,67.86
2018-11-04T18:25:00.186Z,67.58
2018-11-04T18:28:24.904Z,67.28
2018-11-04T18:31:49.764Z,68.23
2018-11-04T18:35:14.560Z,67.90
2018-11-04T18:38:39.207Z,68.83
2018-11-04T18:42:03.951Z,69.57
2018-11-04T18:45:28.610Z,69.92
2018-11-04T18:48:53.364Z,70.57
2018-11-04T18:52:18.086Z,70.52
2018-11-04T18:55:42.741Z,70.79
2018-11-04T18:59:07.738Z,71.12
2018-11-04T19:02:32.455Z,71.27
2018-11-04T19:05:57.171Z,71.61
2018-11-04T19:09:21.934Z,71.33
2018-11-04T19:12:46.737Z,71.26
2018-11-04T19:16:11.484Z,72.17
2018-11-04T19:19:36.181Z,72.28
2018-11-04T19:23:00.902Z,72.57
2018-11-04T19:26:25.618Z,72.10
2018-11-04T19:29:50.360Z,72.47
2018-11-04T19:33:15.707Z,72.09
2018-11-04T19:36:40.571Z,71.66
2018-11-04T19:40:07.918Z,71.69
2018-11-04T19:43:32.958Z,71.63
2018-11-04T19:46:57.886Z,71.93
2018-11-04T19:50:23.410Z,71.85
2018-11-04T19:53:48.991Z,71.92
2018-11-04T19:57:15.338Z,71.75
2018-11-04T20:00:40.446Z,72.16
2018-11-04T20:04:07.385Z,72.38
2018-11-04T20:07:33.166Z,72.53
2018-11-04T20:10:57.955Z,72.32
2018-11-04T20:14:24.076Z,73.32
2018-11-04T20:17:50.612Z,73.87
2018-11-04T20:21:15.940Z,73.84
2018-11-04T20:24:46.031Z,73.83
2018-11-04T20:28:19.639Z,73.67
2018-11-04T20:31:49.451Z,73.67
2018-11-04T20:35:15.759Z,74.00
2018-11-04T20:38:46.248Z,74.56
2018-11-04T20:42:12.482Z,74.45
2018-11-04T20:45:38.089Z,74.32
2018-11-04T20:49:08.004Z,74.31
2018-11-04T20:52:33.600Z,74.26
2018-11-04T20:56:04.643Z,74.81
2018-11-04T20:59:29.437Z,75.78
2018-11-04T21:02:54.495Z,75.41
2018-11-04T21:06:21.119Z,75.19
2018-11-04T21:09:47.671Z,75.29
2018-11-04T21:13:13.324Z,76.02
2018-11-04T21:16:39.518Z,75.94
2018-11-04T21:20:05.910Z,75.55
2018-11-04T21:23:31.069Z,75.45
2018-11-04T21:26:56.246Z,76.01
2018-11-04T21:30:20.991Z,75.12
2018-11-04T21:33:45.757Z,76.12
2018-11-04T21:37:10.556Z,76.06
2018-11-04T21:40:35.375Z,75.58
2018-11-04T21:44:00.294Z,75.75
2018-11-04T21:47:24.917Z,75.35
2018-11-04T21:50:49.792Z,75.70
2018-11-04T21:54:14.529Z,75.94
2018-11-04T21:57:39.740Z,76.42
2018-11-04T22:01:04.552Z,75.87
2018-11-04T22:04:29.381Z,76.62
2018-11-04T22:07:54.173Z,76.58
2018-11-04T22:11:18.947Z,76.37
2018-11-04T22:14:43.694Z,76.07
2018-11-04T22:18:08.455Z,76.08
2018-11-04T22:21:33.176Z,76.24
2018-11-04T22:24:57.970Z,76.49
2018-11-04T22:28:22.718Z,76.94
2018-11-04T22:31:47.586Z,76.48
2018-11-04T22:35:12.813Z,76.91
2018-11-04T22:38:37.635Z,76.43
2018-11-04T22:42:02.506Z,76.22
2018-11-04T22:45:27.290Z,77.10
2018-11-04T22:48:52.054Z,76.39
2018-11-04T22:52:16.924Z,77.30
2018-11-04T22:55:41.828Z,76.58
2018-11-04T22:59:07.200Z,76.74
2018-11-04T23:02:32.015Z,77.06
2018-11-04T23:05:57.057Z,77.23
2018-11-04T23:09:21.890Z,76.93
2018-11-04T23:12:46.651Z,77.15
2018-11-04T23:16:11.486Z,77.38
2018-11-04T23:19:36.252Z,77.53
2018-11-04T23:23:01.027Z,77.82
2018-11-04T23:26:25.878Z,77.01
2018-11-04T23:29:50.782Z,77.49
2018-11-04T23:33:15.552Z,77.85
2018-11-04T23:36:40.571Z,77.14
2018-11-04T23:40:05.951Z,78.10
2018-11-04T23:43:30.837Z,77.82
2018-11-04T23:46:55.643Z,77.41
2018-11-04T23:50:20.404Z,77.03
2018-11-04T23:53:45.136Z,77.37
2018-11-04T23:57:10.116Z,77.80
